Aérodrome :
LOGIN :

S'inscrire | Disclaimer

   EN    FR    IT 

 










Légende :    VFR   VFR Marginal   IFR   IFR Intensif   IFR Très Intensif
Visi : 
Plafond : 
>= 8 km
>= 3000ft
5 à 8 km
1000 à 3000 ft
1500m à 5 km
500 à 1000 ft
800 à 1500m
200 à 500 ft
< 800m
< 200 ft
Symboles :   Orages  Brouillard  Fortes neiges  Fortes précipitations  Vent > 20 kt
SIGMETs :   Divers  Orages  Givrage  Turbulence  Onde Orograph.  Cendres Volcan.







- Altitude de l'aérodrome : 1487 ft
- Code IATA : MUC


EDDM - München Franz Josef Strauss

DERNIER METAR :
  • 200250Z 08001KT 9999 2500NE R26R/0800V1400D BCFG NSC 11/11 Q1022 NOSIG

METARs EXPIRÉS :
  • 200220Z 10001KT 9999 2500NE R26R/0600VP2000U BCFG NSC 11/11 Q1022 NOSIG
  • 200150Z VRB01KT 9999 2500NW R26R/0900VP2000D BCFG NSC 11/11 Q1022 NOSIG
  • 200120Z 14002KT 9999 2000SW BCFG NSC 11/11 Q1022 NOSIG
  • 200050Z VRB02KT 9999 MIFG NSC 11/11 Q1022 NOSIG
  • 200020Z 03001KT 9999 R26L/0650V1100N MIFG NSC 12/11 Q1022 NOSIG

TAF AMD TAF EDDM
Valide du 20 à 02h jusqu'au 21 à 06h UTC


200241Z 2002/2106 VRB02KT CAVOK
TEMPO 2003/2006 2500 BCFG
TEMPO 2012/2016 12005KT
BECMG 2100/2102 2000 BCFG
TEMPO 2102/2106 0700 FG
Pas de NOTAMs connus pour ce terrain.



MET'MAP, la Météo Aéronautique d'un coup d'oeil ! - Copyright ORBIFLY Décembre 2007 - Disclaimer

ORBIFLY MET'MAP TEAM :

Programmation & Développement : Alexandra Zaïnal
Conception & Développement : Baudouin d'Aumeries
Co-Programmation & Développement : Marc-Olivier Méhu
Soutien technique & logistique : Manuel Goepfert

Contact : metmap@orbifly.com




SOURCES & CREDITS :

   NOAA